Terminal Aerodrome Forecast
Issued by NWS

Home | Current Version | Previous Version | Text Only | Print | Product List | Glossary On
Versions: 1 2 3 4 5 6 7 8 9 10 11 12 13
000
FTUS46 KSGX 011250 AAA
TAFTRM
TAF AMD
KTRM 011250Z 0113/0212 32012G20KT P6SM SCT200
     FM011600 VRB06KT P6SM SCT200
     FM020100 31010KT P6SM SCT200
     FM020400 33012G20KT P6SM SCT200
     FM021100 32007KT P6SM SCT200=

USA.gov is the U.S. government's official web portal to all federal, state and local government web resources and services.